createdAt,value
2022-09-04T00:03:41.734Z,92.84
2022-09-04T00:08:01.187Z,92.84
2022-09-04T00:12:08.638Z,91.94
2022-09-04T00:16:16.987Z,91.56
2022-09-04T00:20:46.093Z,91.69
2022-09-04T00:24:57.561Z,91.69
2022-09-04T00:29:06.019Z,90.17
2022-09-04T00:33:20.601Z,90.98
2022-09-04T00:37:28.084Z,91.20
2022-09-04T00:41:58.228Z,91.26
2022-09-04T00:46:06.458Z,91.44
2022-09-04T00:50:40.932Z,90.20
2022-09-04T00:55:35.314Z,91.49
2022-09-04T01:00:02.356Z,91.55
2022-09-04T01:04:35.267Z,93.51
2022-09-04T01:09:03.413Z,94.75
2022-09-04T01:13:30.827Z,93.63
2022-09-04T01:17:51.431Z,93.69
2022-09-04T01:22:21.607Z,93.13
2022-09-04T01:26:37.620Z,92.60
2022-09-04T01:30:50.933Z,92.81
2022-09-04T01:35:06.918Z,91.98
2022-09-04T01:39:09.219Z,93.07
2022-09-04T01:43:21.152Z,92.18
2022-09-04T01:47:40.162Z,93.25
2022-09-04T01:52:08.084Z,92.76
2022-09-04T01:56:18.997Z,92.22
2022-09-04T02:00:24.917Z,93.04
2022-09-04T02:04:48.782Z,91.54
2022-09-04T02:09:10.811Z,91.08
2022-09-04T02:13:44.835Z,91.33
2022-09-04T02:18:14.316Z,92.16
2022-09-04T02:22:39.893Z,91.33
2022-09-04T02:26:46.215Z,91.55
2022-09-04T02:31:00.144Z,94.25
2022-09-04T02:35:15.325Z,95.51
2022-09-04T02:39:30.998Z,94.72
2022-09-04T02:43:39.655Z,95.26
2022-09-04T02:48:04.413Z,97.55
2022-09-04T02:52:33.429Z,100.00
2022-09-04T02:57:12.254Z,100.00
2022-09-04T03:01:23.969Z,100.00
2022-09-04T03:05:31.476Z,100.00
2022-09-04T03:09:42.210Z,100.00
2022-09-04T03:13:58.927Z,100.00
2022-09-04T03:18:16.272Z,100.00
2022-09-04T03:22:41.030Z,100.00
2022-09-04T03:27:07.994Z,100.00
2022-09-04T03:31:28.838Z,100.00
2022-09-04T03:35:58.751Z,100.00
2022-09-04T03:40:18.989Z,100.00
2022-09-04T03:44:34.802Z,100.00
2022-09-04T03:48:55.672Z,100.00
2022-09-04T03:53:42.793Z,100.00
2022-09-04T03:58:19.035Z,100.00
2022-09-04T04:02:37.157Z,100.00
2022-09-04T04:07:07.739Z,100.00
2022-09-04T04:11:23.154Z,100.00
2022-09-04T04:16:08.359Z,100.00
2022-09-04T04:20:38.175Z,100.00
2022-09-04T04:24:58.527Z,100.00
2022-09-04T04:29:30.235Z,100.00
2022-09-04T04:33:42.028Z,100.00
2022-09-04T04:38:03.078Z,100.00
2022-09-04T04:42:28.989Z,100.00
2022-09-04T04:46:51.106Z,100.00
2022-09-04T04:51:40.571Z,100.00
2022-09-04T04:56:15.377Z,100.00
2022-09-04T05:00:27.487Z,100.00
2022-09-04T05:04:41.728Z,100.00
2022-09-04T05:08:56.506Z,100.00
2022-09-04T05:13:10.477Z,100.00
2022-09-04T05:17:37.476Z,100.00
2022-09-04T05:22:10.391Z,100.00
2022-09-04T05:26:37.129Z,100.00
2022-09-04T05:30:51.882Z,100.00
2022-09-04T05:35:04.250Z,100.00
2022-09-04T05:39:41.919Z,100.00
2022-09-04T05:43:57.821Z,100.00
2022-09-04T05:48:09.489Z,100.00
2022-09-04T05:52:29.954Z,100.00
2022-09-04T05:56:51.690Z,100.00
2022-09-04T06:01:23.612Z,100.00
2022-09-04T06:05:47.252Z,100.00
2022-09-04T06:10:08.605Z,100.00
2022-09-04T06:14:48.158Z,100.00
2022-09-04T06:19:08.223Z,100.00
2022-09-04T06:23:17.724Z,100.00
2022-09-04T06:27:39.334Z,100.00
2022-09-04T06:32:04.370Z,100.00
2022-09-04T06:36:35.941Z,100.00
2022-09-04T06:40:55.169Z,100.00
2022-09-04T06:45:09.810Z,100.00
2022-09-04T06:49:24.122Z,100.00
2022-09-04T06:53:38.813Z,100.00
2022-09-04T06:58:13.827Z,100.00
2022-09-04T07:02:24.298Z,96.07
2022-09-04T07:06:58.822Z,92.18
2022-09-04T07:11:38.637Z,91.70
2022-09-04T07:16:00.717Z,92.39
2022-09-04T07:20:10.433Z,93.21
2022-09-04T07:24:27.808Z,92.69
2022-09-04T07:29:05.424Z,92.02
2022-09-04T07:33:19.274Z,91.12
2022-09-04T07:37:31.190Z,87.41
2022-09-04T07:41:52.920Z,82.88
2022-09-04T07:46:05.278Z,79.84
2022-09-04T07:50:35.656Z,79.13
2022-09-04T07:54:58.549Z,76.96
2022-09-04T07:59:38.889Z,75.12
2022-09-04T08:03:58.081Z,76.34
2022-09-04T08:08:04.631Z,74.83
2022-09-04T08:12:30.422Z,73.33
2022-09-04T08:16:53.275Z,73.34
2022-09-04T08:21:15.928Z,73.83
2022-09-04T08:25:29.952Z,74.45
2022-09-04T08:29:38.092Z,75.94
2022-09-04T08:34:03.228Z,77.40
2022-09-04T08:38:34.857Z,78.65
2022-09-04T08:43:07.364Z,79.72
2022-09-04T08:47:41.203Z,80.50
2022-09-04T08:52:07.813Z,80.70
2022-09-04T08:56:45.079Z,81.15
2022-09-04T09:01:25.272Z,80.70
2022-09-04T09:05:46.134Z,81.10
2022-09-04T09:10:25.961Z,80.80
2022-09-04T09:14:53.087Z,80.72
2022-09-04T09:19:37.488Z,80.03
2022-09-04T09:24:01.538Z,77.98
2022-09-04T09:28:23.341Z,77.19
2022-09-04T09:33:03.083Z,75.53
2022-09-04T09:37:18.341Z,74.97
2022-09-04T09:41:41.913Z,74.33
2022-09-04T09:46:34.743Z,74.11
2022-09-04T09:50:54.753Z,73.36
2022-09-04T09:55:09.381Z,72.41
2022-09-04T09:59:48.889Z,71.59
2022-09-04T10:04:15.388Z,71.49
2022-09-04T10:08:36.860Z,71.22
2022-09-04T10:12:50.854Z,69.70
2022-09-04T10:17:18.078Z,69.07
2022-09-04T10:21:35.294Z,68.15
2022-09-04T10:25:58.414Z,67.42
2022-09-04T10:30:03.441Z,66.63
2022-09-04T10:34:44.869Z,66.63
2022-09-04T10:39:25.838Z,65.40
2022-09-04T10:43:37.433Z,63.47
2022-09-04T10:47:58.769Z,63.67
2022-09-04T10:52:43.783Z,62.77
2022-09-04T10:56:48.788Z,62.33
2022-09-04T11:01:18.935Z,61.06
2022-09-04T11:05:25.649Z,60.22
2022-09-04T11:10:09.056Z,59.10
2022-09-04T11:14:31.378Z,58.62
2022-09-04T11:18:57.373Z,58.45
2022-09-04T11:23:24.075Z,58.90
2022-09-04T11:27:58.570Z,59.96
2022-09-04T11:32:31.916Z,58.23
2022-09-04T11:37:06.635Z,57.44
2022-09-04T11:41:31.345Z,58.03
2022-09-04T11:46:03.829Z,57.54
2022-09-04T11:50:12.002Z,57.28
2022-09-04T11:54:38.961Z,57.34
2022-09-04T11:58:50.068Z,57.25
2022-09-04T12:02:55.165Z,56.27
2022-09-04T12:07:39.332Z,56.30
2022-09-04T12:12:10.092Z,56.16
2022-09-04T12:16:27.071Z,55.64
2022-09-04T12:20:47.915Z,55.40
2022-09-04T12:25:08.762Z,54.83
2022-09-04T12:29:55.342Z,54.99
2022-09-04T12:34:38.474Z,54.05
2022-09-04T12:39:16.070Z,53.14
2022-09-04T12:43:29.805Z,52.66
2022-09-04T12:47:37.322Z,51.62
2022-09-04T12:51:51.474Z,51.99
2022-09-04T12:56:17.011Z,52.67
2022-09-04T13:00:19.064Z,52.54
2022-09-04T13:04:27.549Z,53.01
2022-09-04T13:08:54.115Z,53.72
2022-09-04T13:12:59.116Z,54.65
2022-09-04T13:17:12.870Z,55.10
2022-09-04T13:21:25.249Z,55.13
2022-09-04T13:25:44.946Z,55.57
2022-09-04T13:30:07.966Z,55.43
2022-09-04T13:34:26.755Z,55.31
2022-09-04T13:38:39.957Z,55.04
2022-09-04T13:43:07.040Z,53.96
2022-09-04T13:47:20.957Z,52.54
2022-09-04T13:51:32.900Z,52.44
2022-09-04T13:55:41.135Z,52.08
2022-09-04T13:59:48.968Z,51.57
2022-09-04T14:04:01.575Z,51.19
2022-09-04T14:08:08.711Z,50.24
2022-09-04T14:12:32.130Z,50.75
2022-09-04T14:16:36.930Z,50.50
2022-09-04T14:20:43.492Z,50.55
2022-09-04T14:25:06.706Z,50.91
2022-09-04T14:29:21.165Z,51.18
2022-09-04T14:38:15.178Z,51.36
2022-09-04T14:42:31.010Z,51.28
2022-09-04T14:46:48.549Z,51.49
2022-09-04T14:50:57.588Z,51.06
2022-09-04T14:55:01.744Z,51.41
2022-09-04T14:59:12.995Z,51.19
2022-09-04T15:03:20.630Z,51.81
2022-09-04T15:07:32.735Z,51.81
2022-09-04T15:11:36.094Z,51.66
2022-09-04T15:15:47.763Z,52.36
2022-09-04T15:20:05.795Z,52.38
2022-09-04T15:24:17.688Z,52.42
2022-09-04T15:28:48.390Z,52.59
2022-09-04T15:33:11.721Z,53.72
2022-09-04T15:37:18.822Z,53.63
2022-09-04T15:41:37.602Z,54.22
2022-09-04T15:45:51.927Z,54.58
2022-09-04T15:49:58.557Z,55.12
2022-09-04T15:54:10.031Z,55.26
2022-09-04T15:58:30.158Z,55.76
2022-09-04T16:02:43.613Z,56.20
2022-09-04T16:06:57.607Z,56.59
2022-09-04T16:11:38.307Z,56.19
2022-09-04T16:15:46.181Z,56.10
2022-09-04T16:19:53.426Z,55.67
2022-09-04T16:23:59.688Z,55.33
2022-09-04T16:28:19.068Z,55.07
2022-09-04T16:32:29.991Z,54.93
2022-09-04T16:36:40.719Z,53.28
2022-09-04T16:40:54.277Z,51.95
2022-09-04T16:45:22.163Z,51.61
2022-09-04T16:49:51.623Z,50.82
2022-09-04T16:54:05.170Z,50.25
2022-09-04T16:58:29.946Z,50.19
2022-09-04T17:02:50.694Z,50.19
2022-09-04T17:07:12.006Z,50.67
2022-09-04T17:11:30.183Z,50.88
2022-09-04T17:15:45.878Z,51.15
2022-09-04T17:20:02.194Z,52.01
2022-09-04T17:29:08.798Z,51.88
2022-09-04T17:40:35.593Z,52.22
2022-09-04T17:40:36.995Z,52.73
2022-09-04T17:43:36.381Z,53.12
2022-09-04T17:47:43.688Z,53.17
2022-09-04T17:52:24.193Z,53.67
2022-09-04T17:56:40.938Z,54.15
2022-09-04T18:01:15.286Z,54.99
2022-09-04T18:05:23.250Z,55.16
2022-09-04T18:09:35.967Z,56.27
2022-09-04T18:14:03.140Z,56.87
2022-09-04T18:18:17.073Z,57.37
2022-09-04T18:22:31.900Z,57.98
2022-09-04T18:26:59.690Z,58.47
2022-09-04T18:37:10.472Z,59.62
2022-09-04T18:37:20.410Z,60.96
2022-09-04T18:44:00.844Z,62.15
2022-09-04T18:50:45.117Z,62.92
2022-09-04T18:50:53.076Z,63.00
2022-09-04T18:54:41.809Z,63.70
2022-09-04T18:58:43.768Z,63.96
2022-09-04T19:02:53.744Z,64.32
2022-09-04T19:07:32.646Z,64.34
2022-09-04T19:11:41.162Z,64.36
2022-09-04T19:15:52.453Z,64.60
2022-09-04T19:20:03.609Z,65.24
2022-09-04T19:24:34.469Z,65.57
2022-09-04T19:28:52.675Z,66.25
2022-09-04T19:33:17.688Z,67.01
2022-09-04T19:39:04.818Z,68.29
2022-09-04T19:46:01.173Z,68.65
2022-09-04T19:46:51.042Z,68.83
2022-09-04T19:53:31.421Z,68.00
2022-09-04T19:55:45.669Z,68.93
2022-09-04T20:00:42.129Z,69.99
2022-09-04T20:04:38.615Z,69.77
2022-09-04T20:08:53.292Z,70.35
2022-09-04T20:13:10.742Z,71.66
2022-09-04T20:18:01.537Z,71.14
2022-09-04T20:22:24.747Z,71.84
2022-09-04T20:26:32.031Z,73.49
2022-09-04T20:30:36.811Z,75.31
2022-09-04T20:35:13.010Z,76.31
2022-09-04T20:39:24.451Z,76.32
2022-09-04T20:43:56.122Z,76.73
2022-09-04T20:52:50.064Z,77.25
2022-09-04T20:53:07.180Z,76.45
2022-09-04T21:02:02.524Z,75.79
2022-09-04T21:03:08.254Z,76.94
2022-09-04T21:06:57.098Z,78.51
2022-09-04T21:11:38.926Z,78.53
2022-09-04T21:15:47.048Z,78.59
2022-09-04T21:20:23.690Z,79.45
2022-09-04T21:25:00.091Z,80.69
2022-09-04T21:29:28.133Z,81.58
2022-09-04T21:33:41.215Z,81.52
2022-09-04T21:38:15.232Z,82.42
2022-09-04T21:42:51.410Z,83.41
2022-09-04T21:47:11.677Z,83.03
2022-09-04T21:51:55.399Z,82.36
2022-09-04T22:01:19.540Z,82.53
2022-09-04T22:02:41.129Z,82.47
2022-09-04T22:06:03.689Z,82.46
2022-09-04T22:13:32.672Z,82.19
2022-09-04T22:14:59.024Z,82.87
2022-09-04T22:19:17.068Z,83.80
2022-09-04T22:23:49.841Z,84.83
2022-09-04T22:28:21.184Z,85.23
2022-09-04T22:32:29.256Z,85.87
2022-09-04T22:36:59.031Z,85.53
2022-09-04T22:41:17.587Z,84.57
2022-09-04T22:45:50.836Z,83.96
2022-09-04T22:50:17.813Z,84.05
2022-09-04T22:54:41.670Z,83.31
2022-09-04T22:59:25.589Z,83.16
2022-09-04T23:04:00.306Z,82.81
2022-09-04T23:13:41.992Z,83.13
2022-09-04T23:13:47.523Z,84.57
2022-09-04T23:17:58.212Z,87.25
2022-09-04T23:26:53.816Z,87.37
2022-09-04T23:27:29.464Z,87.84
2022-09-04T23:32:10.047Z,90.13
2022-09-04T23:36:35.439Z,89.17
2022-09-04T23:40:42.655Z,88.96
2022-09-04T23:45:02.927Z,89.57
2022-09-04T23:49:17.640Z,89.13
2022-09-04T23:53:41.495Z,88.51
2022-09-04T23:57:52.545Z,89.86
